Salina, KS (67401)

08:09 CDT le 27 août 2014 (GMT -0500)
Peters Science Hall | Change Station
CLOSE
Current Station
Stations météorologiques personnelles
Location: Salina, KS
Altitude: 1225 ft
Stations météo à proximité

Alt. 1225 ft 38.81 °N, 97.61 °W | Updated 14 seconds ago

Mostly Cloudy
Nuageux
77.6 ° F
Paraît 79 ° F
N
2.0
Vent Variable Vent de OSO
Gusts 7.0 mph

Aujourd'hui
Haut(e) -- | Bas -- ° F
--% Risque de précip.
Hier
Haut(e) -- | Bas -- ° F
Precip. -- pouce
6:55 AM 8:08 PM
Lune montante, 3% visible
Pression 30.06 pouce
Visibilité 10.0 Miles terrestres
Nuages Nuageux 7000 ft
indice de chaleur 79 ° F
Point de rosée 67 ° F
Humidité 69%
Précipitations 0.00 pouce
Profondeur de la couche neigeuse Non disponible.
UV 0.6 sur 12
Pollen 5.80 sur 12
Qualité de l'air Non disponible.
Flu Activity Non disponible.
METAR KSLN 271253Z 24006KT 10SM BKN070 26/19 A3010 RMK AO2 SLP177 T02610194

More Conditions Fewer Conditions

Pression 30.06 pouce
Visibilité 10.0 Miles terrestres
Nuages Nuageux 7000 ft
indice de chaleur 79 ° F
Point de rosée 67 ° F
Humidité 69%
Précipitations 0.00 pouce
Profondeur de la couche neigeuse Non disponible.
UV 0.6 sur 12
Pollen 5.80 sur 12
Qualité de l'air Non disponible.
Flu Activity Non disponible.
METAR KSLN 271253Z 24006KT 10SM BKN070 26/19 A3010 RMK AO2 SLP177 T02610194

More Conditions Fewer Conditions

10-Day Weather Forecast

Almanac

Astronomie

Aug. 27, 2014 Lever Coucher
Temps réel 06:55 CDT 20:08 CDT
Crépuscule civil 06:27 CDT 20:35 CDT
Crépuscule nautique 05:54 CDT 21:08 CDT
Crépuscule astronomique 05:20 CDT 21:43 CDT
Lune 08:50 CDT 21:03 CDT
Durée de lumière visible 14h 08m
Longueur du jour
13h 13m
Tomorrow will be 2m 23s shorter.
Lune montante, 3% of the Moon is Illuminated
Aujourd'hui
Lune montante
Sep 2
Premier quartier
Sep 8
Pleine lune
Sep 15
Dernier quartier
Sep 24
Nouveau

Extrêmes aujourd'hui

State Highs State Lows

Community

WunderPhotos

Upload Photos

1,747,680 Photos téléchargées !

Nearby

Épaisseur de neige

Station Depth Altitude
Pas de nouvelles chutes de neige

Activité sismique

Ville Distance Mag. Time & Date
Harper, Kansas 105 Miles terrestres 3.0 19:10 CDT
2014-08-24
Minimum magnitude displayed is 2.5.

Températures des eaux côtières

Lieu Température
Aucun rapport de station

Stations météo à proximité